Time;durP1;ratioP1;P1;durP2;ratioP2;P2;SDS_P1;SDS_P2;PMS_P1;PMS_P2;Temp;Humidity;BMP_temperature;BMP_pressure;BME280_temperature;BME280_humidity;BME280_pressure;Samples;Min_cycle;Max_cycle;Signal;HPM_P1;HPM_P2
2024/02/19 00:04:20;;;;;;;6.82;4.97;;;;;;;;;;10366441;28;20050;-61
2024/02/19 00:09:21;;;;;;;6.03;4.65;;;;;;;;;;10366721;28;20068;-62
2024/02/19 00:14:21;;;;;;;9.43;5.55;;;;;;;;;;10366647;28;20033;-61
2024/02/19 00:19:22;;;;;;;7.80;5.32;;;;;;;;;;10367079;28;20022;-61
2024/02/19 00:24:23;;;;;;;8.63;4.95;;;;;;;;;;10366642;28;20034;-61
2024/02/19 00:29:23;;;;;;;7.32;4.72;;;;;;;;;;10366932;28;20026;-62
2024/02/19 00:34:24;;;;;;;8.23;5.10;;;;;;;;;;10366672;28;20025;-62
2024/02/19 00:39:25;;;;;;;7.18;5.00;;;;;;;;;;10366297;28;20038;-61
2024/02/19 00:44:25;;;;;;;7.32;4.57;;;;;;;;;;10366475;28;20041;-61
2024/02/19 00:49:26;;;;;;;7.07;4.82;;;;;;;;;;10366087;28;20038;-62
2024/02/19 00:54:27;;;;;;;5.95;4.75;;;;;;;;;;10366075;28;20033;-62
2024/02/19 00:59:27;;;;;;;7.43;5.28;;;;;;;;;;10365752;28;20416;-62
2024/02/19 01:04:28;;;;;;;5.90;4.90;;;;;;;;;;10365318;28;20257;-62
2024/02/19 01:09:28;;;;;;;6.63;5.03;;;;;;;;;;10365316;28;20017;-62
2024/02/19 01:14:29;;;;;;;8.05;5.05;;;;;;;;;;10364677;28;20029;-62
2024/02/19 01:19:31;;;;;;;6.88;4.63;;;;;;;;;;10365588;28;20030;-63
2024/02/19 01:24:32;;;;;;;5.93;4.38;;;;;;;;;;10365376;28;20076;-63
2024/02/19 01:29:34;;;;;;;7.63;4.70;;;;;;;;;;10364483;28;20392;-63
2024/02/19 01:34:34;;;;;;;6.63;4.38;;;;;;;;;;10365302;28;20022;-63
2024/02/19 01:39:35;;;;;;;5.70;4.60;;;;;;;;;;10362909;28;20234;-63
2024/02/19 01:44:36;;;;;;;7.95;5.20;;;;;;;;;;10365404;28;20129;-63
2024/02/19 01:49:38;;;;;;;7.63;5.00;;;;;;;;;;10363781;28;20034;-63
2024/02/19 01:54:39;;;;;;;7.53;4.55;;;;;;;;;;10343553;28;20026;-63
2024/02/19 01:59:41;;;;;;;5.78;4.65;;;;;;;;;;10364497;28;20030;-63
2024/02/19 02:04:41;;;;;;;4.82;4.13;;;;;;;;;;10352104;28;20445;-63
2024/02/19 02:09:44;;;;;;;6.57;4.25;;;;;;;;;;10351446;28;20072;-62
2024/02/19 02:14:45;;;;;;;8.50;4.90;;;;;;;;;;10359926;28;20394;-61
2024/02/19 02:19:45;;;;;;;7.07;4.40;;;;;;;;;;10371841;28;20037;-61
2024/02/19 02:24:46;;;;;;;5.57;4.68;;;;;;;;;;10349146;28;20034;-61
2024/02/19 02:29:47;;;;;;;6.90;4.30;;;;;;;;;;10368617;28;20033;-61
2024/02/19 02:34:47;;;;;;;9.18;4.97;;;;;;;;;;10358767;28;20025;-61
2024/02/19 02:39:48;;;;;;;6.72;4.63;;;;;;;;;;10369429;28;20030;-62
2024/02/19 02:44:48;;;;;;;5.70;4.13;;;;;;;;;;10367281;28;20025;-62
2024/02/19 02:49:49;;;;;;;6.10;4.65;;;;;;;;;;10366097;28;20033;-62
2024/02/19 02:54:49;;;;;;;7.78;4.78;;;;;;;;;;10363504;28;20037;-62
2024/02/19 02:59:50;;;;;;;4.88;4.30;;;;;;;;;;10358242;28;20041;-62
2024/02/19 03:04:51;;;;;;;4.80;4.05;;;;;;;;;;10357057;28;20068;-62
2024/02/19 03:09:52;;;;;;;7.75;4.55;;;;;;;;;;10368079;28;20041;-60
2024/02/19 03:14:54;;;;;;;6.57;4.30;;;;;;;;;;10369003;28;20034;-60
2024/02/19 03:19:54;;;;;;;5.65;4.47;;;;;;;;;;10369178;28;20041;-61
2024/02/19 03:24:55;;;;;;;5.63;4.72;;;;;;;;;;10369123;28;20030;-61
2024/02/19 03:29:56;;;;;;;7.30;4.50;;;;;;;;;;10368876;28;20034;-60
2024/02/19 03:34:56;;;;;;;4.93;4.15;;;;;;;;;;10357039;28;20030;-60
2024/02/19 03:39:57;;;;;;;5.05;4.55;;;;;;;;;;10368712;28;20028;-60
2024/02/19 03:44:57;;;;;;;6.78;4.45;;;;;;;;;;10368316;28;20057;-61
2024/02/19 03:49:58;;;;;;;7.03;4.80;;;;;;;;;;10358768;28;20033;-62
2024/02/19 03:54:58;;;;;;;4.75;4.00;;;;;;;;;;10337449;28;20076;-61
2024/02/19 03:59:59;;;;;;;6.25;4.43;;;;;;;;;;10368075;28;20527;-62
2024/02/19 04:04:59;;;;;;;5.70;4.15;;;;;;;;;;10367830;28;20394;-61
2024/02/19 04:10:00;;;;;;;5.07;4.13;;;;;;;;;;10364973;28;20033;-62
2024/02/19 04:15:01;;;;;;;4.68;4.00;;;;;;;;;;10358028;28;20033;-62
2024/02/19 04:20:04;;;;;;;4.80;4.10;;;;;;;;;;10353021;28;20072;-61
2024/02/19 04:25:04;;;;;;;6.95;4.63;;;;;;;;;;10344399;28;20125;-60
2024/02/19 04:30:06;;;;;;;7.55;4.45;;;;;;;;;;10354085;28;20036;-60
2024/02/19 04:35:07;;;;;;;5.18;4.68;;;;;;;;;;10355126;28;20088;-60
2024/02/19 04:40:12;;;;;;;4.25;3.83;;;;;;;;;;10329563;28;20072;-60
2024/02/19 04:45:12;;;;;;;5.10;3.90;;;;;;;;;;10349701;28;20080;-61
2024/02/19 04:50:14;;;;;;;6.85;4.35;;;;;;;;;;10362160;28;20040;-61
2024/02/19 04:55:14;;;;;;;5.70;4.30;;;;;;;;;;10366178;28;20092;-62
2024/02/19 05:00:15;;;;;;;6.70;3.92;;;;;;;;;;10365976;28;20532;-61
2024/02/19 05:05:16;;;;;;;5.30;4.30;;;;;;;;;;10347251;28;20054;-61
2024/02/19 05:10:16;;;;;;;5.88;4.32;;;;;;;;;;10353478;28;20022;-61
2024/02/19 05:15:17;;;;;;;5.00;4.50;;;;;;;;;;10358174;28;20485;-60
2024/02/19 05:20:18;;;;;;;5.70;4.50;;;;;;;;;;10365190;28;20014;-61
2024/02/19 05:25:18;;;;;;;5.28;4.45;;;;;;;;;;10349637;28;20027;-60
2024/02/19 05:30:22;;;;;;;4.50;4.00;;;;;;;;;;10355503;28;20018;-60
2024/02/19 05:35:22;;;;;;;4.85;4.05;;;;;;;;;;10352501;28;20026;-60
2024/02/19 05:40:23;;;;;;;6.55;4.03;;;;;;;;;;10340108;28;20038;-62
2024/02/19 05:45:23;;;;;;;4.57;4.03;;;;;;;;;;10360131;28;20440;-63
2024/02/19 05:50:24;;;;;;;4.93;4.20;;;;;;;;;;10359523;28;20103;-62
2024/02/19 05:55:25;;;;;;;4.70;4.20;;;;;;;;;;10373498;28;20037;-62
2024/02/19 06:00:25;;;;;;;4.60;4.10;;;;;;;;;;10372891;28;20037;-62
2024/02/19 06:05:26;;;;;;;4.25;3.85;;;;;;;;;;10372498;28;20069;-62
2024/02/19 06:10:26;;;;;;;4.82;4.15;;;;;;;;;;10372922;28;20022;-62
2024/02/19 06:15:27;;;;;;;9.15;3.78;;;;;;;;;;10369268;28;20022;-62
2024/02/19 06:20:27;;;;;;;6.07;4.65;;;;;;;;;;10366262;28;20026;-61
2024/02/19 06:25:28;;;;;;;4.35;3.95;;;;;;;;;;10370191;28;20040;-62
2024/02/19 06:30:29;;;;;;;6.25;4.07;;;;;;;;;;10368347;28;20026;-62
2024/02/19 06:35:29;;;;;;;4.05;3.67;;;;;;;;;;10339502;28;20037;-62
2024/02/19 06:40:30;;;;;;;6.40;4.45;;;;;;;;;;10333524;28;20081;-60
2024/02/19 06:45:30;;;;;;;14.27;5.07;;;;;;;;;;10332202;28;20037;-62
2024/02/19 06:50:32;;;;;;;8.15;5.88;;;;;;;;;;10332431;28;20022;-62
2024/02/19 06:55:33;;;;;;;6.80;5.60;;;;;;;;;;10332640;28;20030;-62
2024/02/19 07:00:33;;;;;;;7.57;6.20;;;;;;;;;;10332394;28;20098;-62
2024/02/19 07:05:34;;;;;;;7.82;5.82;;;;;;;;;;10331710;28;20054;-61
2024/02/19 07:10:34;;;;;;;9.18;6.03;;;;;;;;;;10331013;28;20034;-60
2024/02/19 07:15:35;;;;;;;9.55;6.80;;;;;;;;;;10330939;28;20590;-62
2024/02/19 07:20:36;;;;;;;18.45;6.43;;;;;;;;;;10330408;28;20454;-63
2024/02/19 07:25:36;;;;;;;13.00;7.40;;;;;;;;;;10331233;28;20034;-61
2024/02/19 07:30:38;;;;;;;14.90;6.28;;;;;;;;;;10331696;28;20034;-62
2024/02/19 07:35:38;;;;;;;10.77;6.65;;;;;;;;;;10331766;28;20030;-62
2024/02/19 07:40:39;;;;;;;15.60;7.53;;;;;;;;;;10330951;28;20041;-62
2024/02/19 07:45:40;;;;;;;14.90;6.65;;;;;;;;;;10331088;28;20085;-62
2024/02/19 07:50:41;;;;;;;21.70;7.25;;;;;;;;;;10331197;28;20105;-61
2024/02/19 07:55:42;;;;;;;11.65;7.07;;;;;;;;;;10330322;28;20057;-64
2024/02/19 08:00:42;;;;;;;11.05;7.10;;;;;;;;;;10330635;28;20065;-63
2024/02/19 08:05:44;;;;;;;16.45;7.63;;;;;;;;;;10329667;28;20409;-64
2024/02/19 08:10:45;;;;;;;12.05;7.40;;;;;;;;;;10329886;28;20102;-64
2024/02/19 08:15:46;;;;;;;8.95;6.75;;;;;;;;;;10328443;28;20038;-63
2024/02/19 08:20:48;;;;;;;13.65;7.43;;;;;;;;;;10329120;28;20406;-64
2024/02/19 08:25:48;;;;;;;14.55;7.60;;;;;;;;;;10329392;28;20038;-63
2024/02/19 08:30:49;;;;;;;10.63;7.55;;;;;;;;;;10328781;28;20444;-65
2024/02/19 08:35:50;;;;;;;10.90;7.25;;;;;;;;;;10328590;28;20030;-64
2024/02/19 08:40:50;;;;;;;10.75;7.63;;;;;;;;;;10329031;28;20034;-64
2024/02/19 08:45:51;;;;;;;12.95;6.50;;;;;;;;;;10328115;28;20038;-64
2024/02/19 08:50:52;;;;;;;8.32;6.90;;;;;;;;;;10328482;28;20081;-66
2024/02/19 08:55:52;;;;;;;9.32;6.80;;;;;;;;;;10328373;28;20084;-64
2024/02/19 09:00:53;;;;;;;11.20;7.18;;;;;;;;;;10327904;28;20092;-63
2024/02/19 09:05:54;;;;;;;11.68;6.88;;;;;;;;;;10327389;28;20042;-64
2024/02/19 09:10:54;;;;;;;18.80;7.43;;;;;;;;;;10328122;28;20359;-63
2024/02/19 09:15:55;;;;;;;9.00;6.90;;;;;;;;;;10327093;28;20424;-64
2024/02/19 09:20:55;;;;;;;9.80;7.10;;;;;;;;;;10327091;28;20026;-67
2024/02/19 09:25:56;;;;;;;9.98;6.68;;;;;;;;;;10326805;28;20034;-63
2024/02/19 09:30:57;;;;;;;9.48;7.20;;;;;;;;;;10327786;28;20084;-64
2024/02/19 09:35:57;;;;;;;15.00;7.70;;;;;;;;;;10327395;28;20097;-65
2024/02/19 09:40:59;;;;;;;11.48;7.25;;;;;;;;;;10327206;28;20027;-64
2024/02/19 09:46:03;;;;;;;8.52;6.85;;;;;;;;;;10326962;28;20061;-65
2024/02/19 09:51:07;;;;;;;10.18;7.05;;;;;;;;;;10327167;28;20029;-63
2024/02/19 09:56:13;;;;;;;14.27;7.72;;;;;;;;;;10326992;28;20029;-64
2024/02/19 10:01:14;;;;;;;12.02;7.95;;;;;;;;;;10326819;28;20026;-64
2024/02/19 10:06:14;;;;;;;10.23;7.93;;;;;;;;;;10325877;28;20046;-63
2024/02/19 10:11:15;;;;;;;9.55;7.22;;;;;;;;;;10326743;28;20043;-64
2024/02/19 10:16:16;;;;;;;8.73;6.95;;;;;;;;;;10326174;28;20036;-64
2024/02/19 10:21:16;;;;;;;10.02;7.15;;;;;;;;;;10326073;28;20041;-63
2024/02/19 10:26:17;;;;;;;10.90;7.25;;;;;;;;;;10325807;28;20037;-63
2024/02/19 10:31:19;;;;;;;9.07;7.18;;;;;;;;;;10325777;28;20022;-65
2024/02/19 10:36:22;;;;;;;12.30;7.20;;;;;;;;;;10327544;28;20035;-63
2024/02/19 10:41:23;;;;;;;11.05;7.28;;;;;;;;;;10333035;28;20617;-63
2024/02/19 10:46:24;;;;;;;11.35;7.20;;;;;;;;;;10331631;28;20022;-66
2024/02/19 10:51:25;;;;;;;12.30;7.05;;;;;;;;;;10332008;28;20022;-63
2024/02/19 10:56:36;;;;;;;8.07;6.97;;;;;;;;;;10333716;28;20023;-63
2024/02/19 11:01:48;;;;;;;9.20;6.97;;;;;;;;;;10332862;28;20026;-64
2024/02/19 11:06:54;;;;;;;8.52;6.88;;;;;;;;;;10332022;28;20570;-63
2024/02/19 11:11:57;;;;;;;9.13;7.10;;;;;;;;;;10331974;28;20073;-64
2024/02/19 11:16:59;;;;;;;8.80;6.78;;;;;;;;;;10331869;28;20046;-63
2024/02/19 11:22:06;;;;;;;10.52;6.90;;;;;;;;;;10332013;28;20111;-63
2024/02/19 11:27:07;;;;;;;9.48;6.53;;;;;;;;;;10331415;28;20045;-63
2024/02/19 11:32:08;;;;;;;7.47;6.25;;;;;;;;;;10331485;28;20027;-67
2024/02/19 11:37:10;;;;;;;8.57;6.38;;;;;;;;;;10331554;28;20041;-67
2024/02/19 11:42:15;;;;;;;9.98;6.72;;;;;;;;;;10330570;28;20651;-67
2024/02/19 11:47:16;;;;;;;9.80;6.57;;;;;;;;;;10330303;28;20484;-68
2024/02/19 11:52:17;;;;;;;9.32;6.05;;;;;;;;;;10329451;28;20032;-68
2024/02/19 11:57:18;;;;;;;8.32;6.30;;;;;;;;;;10329438;28;20033;-63
2024/02/19 12:02:20;;;;;;;7.90;6.05;;;;;;;;;;10329748;28;20034;-63
2024/02/19 12:07:21;;;;;;;7.30;6.03;;;;;;;;;;10330602;28;20050;-64
2024/02/19 12:12:22;;;;;;;8.40;5.80;;;;;;;;;;10328410;28;20022;-67
2024/02/19 12:17:22;;;;;;;6.57;5.90;;;;;;;;;;10329848;28;20034;-67
2024/02/19 12:22:23;;;;;;;7.30;5.78;;;;;;;;;;10329161;28;20038;-65
2024/02/19 12:27:24;;;;;;;9.35;5.75;;;;;;;;;;10328923;28;20050;-63
2024/02/19 12:32:24;;;;;;;6.63;5.80;;;;;;;;;;10329293;28;20023;-64
2024/02/19 12:37:25;;;;;;;6.45;5.57;;;;;;;;;;10328677;28;20037;-63
2024/02/19 12:42:25;;;;;;;7.07;5.50;;;;;;;;;;10329335;28;20229;-63
2024/02/19 12:47:26;;;;;;;7.30;5.53;;;;;;;;;;10328484;28;20031;-64
2024/02/19 12:52:27;;;;;;;6.70;5.20;;;;;;;;;;10327859;28;20508;-64
2024/02/19 12:57:29;;;;;;;7.80;5.40;;;;;;;;;;10327130;28;20046;-64
2024/02/19 13:02:30;;;;;;;8.23;6.03;;;;;;;;;;10326839;28;20029;-66
2024/02/19 13:07:31;;;;;;;6.22;5.20;;;;;;;;;;10326863;28;20370;-65
2024/02/19 13:12:31;;;;;;;7.72;5.75;;;;;;;;;;10327375;28;20030;-63
2024/02/19 13:17:32;;;;;;;6.88;5.15;;;;;;;;;;10327567;28;20026;-64
2024/02/19 13:22:32;;;;;;;5.95;5.15;;;;;;;;;;10327005;28;20635;-64
2024/02/19 13:27:33;;;;;;;7.05;5.40;;;;;;;;;;10326118;28;20037;-64
2024/02/19 13:32:33;;;;;;;6.65;5.57;;;;;;;;;;10326467;28;20038;-64
2024/02/19 13:37:34;;;;;;;5.68;4.65;;;;;;;;;;10326608;28;20395;-64
2024/02/19 13:42:35;;;;;;;7.55;4.97;;;;;;;;;;10326433;28;20401;-63
2024/02/19 13:47:40;;;;;;;7.03;5.72;;;;;;;;;;10326355;28;20034;-64
2024/02/19 13:52:41;;;;;;;7.35;5.25;;;;;;;;;;10326622;28;20038;-64
2024/02/19 13:57:42;;;;;;;5.65;4.90;;;;;;;;;;10326189;28;20034;-64
2024/02/19 14:02:42;;;;;;;6.25;5.03;;;;;;;;;;10325104;28;20597;-63
2024/02/19 14:07:43;;;;;;;5.55;4.70;;;;;;;;;;10326671;28;20272;-62
2024/02/19 14:12:43;;;;;;;5.85;4.82;;;;;;;;;;10329543;28;20095;-62
2024/02/19 14:17:44;;;;;;;8.07;5.40;;;;;;;;;;10334357;28;20411;-62
2024/02/19 14:22:45;;;;;;;6.43;5.07;;;;;;;;;;10333839;28;20022;-63
2024/02/19 14:27:45;;;;;;;7.20;5.47;;;;;;;;;;10333457;28;20023;-62
2024/02/19 14:32:46;;;;;;;7.43;4.90;;;;;;;;;;10333452;28;20022;-69
2024/02/19 14:37:47;;;;;;;14.25;5.45;;;;;;;;;;10333336;28;20397;-62
2024/02/19 14:42:49;;;;;;;7.80;4.95;;;;;;;;;;10332551;28;20034;-62
2024/02/19 14:47:49;;;;;;;13.95;4.88;;;;;;;;;;10332302;28;20034;-63
2024/02/19 14:52:50;;;;;;;5.93;5.30;;;;;;;;;;10332213;28;20610;-63
2024/02/19 14:57:51;;;;;;;10.38;5.40;;;;;;;;;;10332380;28;20053;-63
2024/02/19 15:02:52;;;;;;;8.82;5.13;;;;;;;;;;10332384;28;20390;-64
2024/02/19 15:07:55;;;;;;;6.60;5.00;;;;;;;;;;10331780;28;20393;-67
2024/02/19 15:12:56;;;;;;;9.93;5.15;;;;;;;;;;10331312;28;20025;-62
2024/02/19 15:17:57;;;;;;;10.57;4.85;;;;;;;;;;10331066;28;20498;-63
2024/02/19 15:22:57;;;;;;;5.80;4.65;;;;;;;;;;10330939;28;20042;-62
2024/02/19 15:27:58;;;;;;;6.50;4.90;;;;;;;;;;10331022;28;20034;-63
2024/02/19 15:32:58;;;;;;;5.22;4.65;;;;;;;;;;10329677;28;20053;-62
2024/02/19 15:37:59;;;;;;;5.47;4.57;;;;;;;;;;10329392;28;20432;-67
2024/02/19 15:42:59;;;;;;;6.63;3.92;;;;;;;;;;10330053;28;20492;-63
2024/02/19 15:48:00;;;;;;;7.57;5.10;;;;;;;;;;10330623;28;20026;-63
2024/02/19 15:53:03;;;;;;;7.88;4.97;;;;;;;;;;10329967;28;20026;-63
2024/02/19 15:58:04;;;;;;;7.22;5.03;;;;;;;;;;10330252;28;20031;-62
2024/02/19 16:03:05;;;;;;;6.88;5.20;;;;;;;;;;10329293;28;20386;-62
2024/02/19 16:08:31;;;;;;;5.38;4.53;;;;;;;;;;10329121;28;20157;-65
2024/02/19 16:13:39;;;;;;;5.53;4.93;;;;;;;;;;10329235;28;20093;-63
2024/02/19 16:18:39;;;;;;;5.50;4.70;;;;;;;;;;10329295;28;20397;-62
2024/02/19 16:23:40;;;;;;;6.35;4.28;;;;;;;;;;10329475;28;20041;-64
2024/02/19 16:28:41;;;;;;;6.57;4.78;;;;;;;;;;10327993;28;20084;-63
2024/02/19 16:33:42;;;;;;;5.45;4.45;;;;;;;;;;10327016;28;20037;-67
2024/02/19 16:38:42;;;;;;;7.45;4.25;;;;;;;;;;10328977;28;20037;-63
2024/02/19 16:43:43;;;;;;;6.53;4.78;;;;;;;;;;10328607;28;20042;-68
2024/02/19 16:48:44;;;;;;;5.20;4.20;;;;;;;;;;10327575;28;20045;-64
2024/02/19 16:53:49;;;;;;;5.32;3.95;;;;;;;;;;10328378;28;20042;-62
2024/02/19 16:58:50;;;;;;;6.65;4.38;;;;;;;;;;10327816;28;20496;-61
2024/02/19 17:03:51;;;;;;;5.10;4.50;;;;;;;;;;10327839;28;20050;-61
2024/02/19 17:08:51;;;;;;;5.78;4.57;;;;;;;;;;10327863;28;20030;-61
2024/02/19 17:13:53;;;;;;;4.50;4.10;;;;;;;;;;10327729;28;20038;-61
2024/02/19 17:18:53;;;;;;;12.57;4.53;;;;;;;;;;10327703;28;20050;-60
2024/02/19 17:23:54;;;;;;;7.82;4.40;;;;;;;;;;10326852;28;20105;-59
2024/02/19 17:28:54;;;;;;;8.20;4.15;;;;;;;;;;10326670;28;20528;-62
2024/02/19 17:33:55;;;;;;;6.35;4.88;;;;;;;;;;10326885;28;20034;-58
2024/02/19 17:38:56;;;;;;;6.00;3.88;;;;;;;;;;10326214;28;20046;-58
2024/02/19 17:43:57;;;;;;;5.45;3.60;;;;;;;;;;10326550;28;20030;-60
2024/02/19 17:48:58;;;;;;;5.68;4.28;;;;;;;;;;10338132;28;20303;-60
2024/02/19 17:53:59;;;;;;;7.78;4.10;;;;;;;;;;10339080;28;20030;-59
2024/02/19 17:59:01;;;;;;;4.78;3.80;;;;;;;;;;10338804;28;20030;-59
2024/02/19 18:04:01;;;;;;;4.53;3.83;;;;;;;;;;10339231;28;20055;-60
2024/02/19 18:09:03;;;;;;;6.38;4.10;;;;;;;;;;10337865;28;20490;-60
2024/02/19 18:14:03;;;;;;;4.82;3.88;;;;;;;;;;10338336;28;20034;-60
2024/02/19 18:19:04;;;;;;;5.65;4.10;;;;;;;;;;10337881;28;20462;-60
2024/02/19 18:24:08;;;;;;;6.38;4.07;;;;;;;;;;10338703;28;20577;-60
2024/02/19 18:29:14;;;;;;;4.13;3.67;;;;;;;;;;10338775;28;20113;-60
2024/02/19 18:34:15;;;;;;;4.75;4.10;;;;;;;;;;10338418;28;20410;-60
2024/02/19 18:39:15;;;;;;;4.43;4.03;;;;;;;;;;10338368;28;20037;-60
2024/02/19 18:44:16;;;;;;;4.05;3.58;;;;;;;;;;10337183;28;20516;-60
2024/02/19 18:49:19;;;;;;;5.50;3.90;;;;;;;;;;10337388;28;20398;-60
2024/02/19 18:54:21;;;;;;;6.30;4.53;;;;;;;;;;10336819;28;20073;-60
2024/02/19 18:59:22;;;;;;;4.50;3.95;;;;;;;;;;10331553;28;20033;-60
2024/02/19 19:04:22;;;;;;;6.72;3.60;;;;;;;;;;10330605;28;20417;-60
2024/02/19 19:09:23;;;;;;;7.72;3.78;;;;;;;;;;10331132;28;20031;-59
2024/02/19 19:14:24;;;;;;;4.72;4.00;;;;;;;;;;10331222;28;20027;-60
2024/02/19 19:19:24;;;;;;;4.72;3.92;;;;;;;;;;10329984;28;20022;-59
2024/02/19 19:24:25;;;;;;;4.25;3.80;;;;;;;;;;10331496;28;20390;-59
2024/02/19 19:29:25;;;;;;;4.43;3.75;;;;;;;;;;10331220;28;20386;-60
2024/02/19 19:34:27;;;;;;;4.20;3.50;;;;;;;;;;10330666;28;20045;-60
2024/02/19 19:39:27;;;;;;;9.90;4.30;;;;;;;;;;10330307;28;20410;-60
2024/02/19 19:44:29;;;;;;;6.00;4.20;;;;;;;;;;10329607;28;20030;-60
2024/02/19 19:49:30;;;;;;;7.93;4.00;;;;;;;;;;10329618;28;20034;-60
2024/02/19 19:54:31;;;;;;;4.75;3.72;;;;;;;;;;10330473;28;20022;-60
2024/02/19 19:59:31;;;;;;;5.18;4.10;;;;;;;;;;10329417;28;20030;-60
2024/02/19 20:04:33;;;;;;;5.00;4.32;;;;;;;;;;10328787;28;20046;-60
2024/02/19 20:09:34;;;;;;;8.57;4.40;;;;;;;;;;10327487;28;20497;-60
2024/02/19 20:14:34;;;;;;;11.88;4.47;;;;;;;;;;10329113;28;20026;-60
2024/02/19 20:19:35;;;;;;;9.45;5.00;;;;;;;;;;10328721;28;20089;-60
2024/02/19 20:24:35;;;;;;;10.43;4.68;;;;;;;;;;10328038;28;20041;-60
2024/02/19 20:29:36;;;;;;;5.65;4.70;;;;;;;;;;10328474;28;20072;-60
2024/02/19 20:34:37;;;;;;;13.70;5.18;;;;;;;;;;10328150;28;20022;-60
2024/02/19 20:39:37;;;;;;;10.52;4.78;;;;;;;;;;10327893;28;20321;-60
2024/02/19 20:44:40;;;;;;;7.25;4.82;;;;;;;;;;10327781;28;20025;-60
2024/02/19 20:49:44;;;;;;;7.95;5.10;;;;;;;;;;10327481;28;20108;-59
2024/02/19 20:54:44;;;;;;;20.50;5.60;;;;;;;;;;10327621;28;20044;-60
2024/02/19 20:59:45;;;;;;;18.60;6.72;;;;;;;;;;10327359;28;20489;-59
2024/02/19 21:04:47;;;;;;;18.63;6.20;;;;;;;;;;10326246;28;20509;-60
2024/02/19 21:09:48;;;;;;;11.23;5.40;;;;;;;;;;10326442;28;20061;-61
2024/02/19 21:14:48;;;;;;;14.70;5.97;;;;;;;;;;10326627;28;20437;-58
2024/02/19 21:19:49;;;;;;;20.05;6.55;;;;;;;;;;10326618;28;20358;-58
2024/02/19 21:24:50;;;;;;;12.68;6.20;;;;;;;;;;10326693;28;20046;-58
2024/02/19 21:29:52;;;;;;;13.35;6.28;;;;;;;;;;10327175;28;20466;-58
2024/02/19 21:34:52;;;;;;;8.20;5.70;;;;;;;;;;10326715;28;20414;-58
2024/02/19 21:39:53;;;;;;;12.25;6.30;;;;;;;;;;10326211;28;20089;-58
2024/02/19 21:44:54;;;;;;;14.05;6.75;;;;;;;;;;10326004;28;20027;-59
2024/02/19 21:49:55;;;;;;;15.65;6.90;;;;;;;;;;10326926;28;20034;-59
2024/02/19 21:54:55;;;;;;;12.95;6.82;;;;;;;;;;10326098;28;20474;-60
2024/02/19 21:59:56;;;;;;;10.02;6.32;;;;;;;;;;10325864;28;20030;-58
2024/02/19 22:04:57;;;;;;;9.50;6.15;;;;;;;;;;10324177;28;20054;-59
2024/02/19 22:10:05;;;;;;;13.07;6.07;;;;;;;;;;10324712;28;20046;-59
2024/02/19 22:15:06;;;;;;;15.00;6.10;;;;;;;;;;10325113;28;20027;-59
2024/02/19 22:20:09;;;;;;;11.70;6.20;;;;;;;;;;10324167;28;20540;-59
2024/02/19 22:25:10;;;;;;;8.73;6.30;;;;;;;;;;10323886;28;20387;-59
2024/02/19 22:30:12;;;;;;;12.43;5.72;;;;;;;;;;10324503;28;20026;-59
2024/02/19 22:35:12;;;;;;;12.43;6.05;;;;;;;;;;10330966;28;20042;-59
2024/02/19 22:40:13;;;;;;;11.43;5.78;;;;;;;;;;10332400;28;20030;-59
2024/02/19 22:45:14;;;;;;;8.43;5.50;;;;;;;;;;10332383;28;20034;-59
2024/02/19 22:50:14;;;;;;;10.43;5.43;;;;;;;;;;10332078;28;20563;-60
2024/02/19 22:55:15;;;;;;;10.52;5.70;;;;;;;;;;10330135;28;20026;-59
2024/02/19 23:05:35;;;;;;;18.65;6.38;;;;;;;;;;10331250;28;20461;-60
2024/02/19 23:10:35;;;;;;;10.05;5.53;;;;;;;;;;10330257;28;20030;-58
2024/02/19 23:15:36;;;;;;;10.20;6.10;;;;;;;;;;10331531;28;20030;-58
2024/02/19 23:20:37;;;;;;;10.93;5.70;;;;;;;;;;10331015;28;20030;-58
2024/02/19 23:25:38;;;;;;;10.93;5.90;;;;;;;;;;10330544;28;20030;-60
2024/02/19 23:30:38;;;;;;;11.00;6.10;;;;;;;;;;10330322;28;20033;-59
2024/02/19 23:35:39;;;;;;;11.35;6.43;;;;;;;;;;10327102;28;20034;-60
2024/02/19 23:40:39;;;;;;;9.48;5.85;;;;;;;;;;10328751;28;20030;-60
2024/02/19 23:45:40;;;;;;;7.45;5.50;;;;;;;;;;10329701;28;20089;-60
2024/02/19 23:50:41;;;;;;;9.88;5.38;;;;;;;;;;10330278;28;20516;-60
2024/02/19 23:55:42;;;;;;;7.68;5.63;;;;;;;;;;10327380;28;20022;-61
